sensor_id;sensor_type;location;lat;lon;timestamp;P1;durP1;ratioP1;P2;durP2;ratioP2
14052;SDS011;7101;51.600;7.310;2023-04-24T00:01:25;1.42;;;0.70;;
14052;SDS011;7101;51.600;7.310;2023-04-24T00:03:51;1.33;;;0.70;;
14052;SDS011;7101;51.600;7.310;2023-04-24T00:06:18;2.05;;;1.00;;
14052;SDS011;7101;51.600;7.310;2023-04-24T00:08:45;1.00;;;0.77;;
14052;SDS011;7101;51.600;7.310;2023-04-24T00:11:12;2.28;;;0.70;;
14052;SDS011;7101;51.600;7.310;2023-04-24T00:13:39;1.10;;;0.80;;
14052;SDS011;7101;51.600;7.310;2023-04-24T00:16:07;2.55;;;0.90;;
14052;SDS011;7101;51.600;7.310;2023-04-24T00:18:34;1.20;;;0.85;;
14052;SDS011;7101;51.600;7.310;2023-04-24T00:21:00;1.50;;;0.73;;
14052;SDS011;7101;51.600;7.310;2023-04-24T00:23:28;0.90;;;0.85;;
14052;SDS011;7101;51.600;7.310;2023-04-24T00:25:54;4.30;;;1.17;;
14052;SDS011;7101;51.600;7.310;2023-04-24T00:28:22;0.80;;;0.80;;
14052;SDS011;7101;51.600;7.310;2023-04-24T00:30:49;1.10;;;0.80;;
14052;SDS011;7101;51.600;7.310;2023-04-24T00:33:17;3.25;;;0.88;;
14052;SDS011;7101;51.600;7.310;2023-04-24T00:35:45;1.80;;;0.85;;
14052;SDS011;7101;51.600;7.310;2023-04-24T00:38:12;1.73;;;0.80;;
14052;SDS011;7101;51.600;7.310;2023-04-24T00:40:39;3.40;;;1.10;;
14052;SDS011;7101;51.600;7.310;2023-04-24T00:43:06;2.28;;;1.20;;
14052;SDS011;7101;51.600;7.310;2023-04-24T00:45:34;1.20;;;0.88;;
14052;SDS011;7101;51.600;7.310;2023-04-24T00:48:01;2.45;;;1.10;;
14052;SDS011;7101;51.600;7.310;2023-04-24T00:50:30;1.55;;;1.10;;
14052;SDS011;7101;51.600;7.310;2023-04-24T00:52:57;1.20;;;1.08;;
14052;SDS011;7101;51.600;7.310;2023-04-24T00:55:24;1.15;;;1.00;;
14052;SDS011;7101;51.600;7.310;2023-04-24T00:57:57;1.90;;;1.13;;
14052;SDS011;7101;51.600;7.310;2023-04-24T01:00:25;5.00;;;1.00;;
14052;SDS011;7101;51.600;7.310;2023-04-24T01:02:52;1.70;;;0.93;;
14052;SDS011;7101;51.600;7.310;2023-04-24T01:05:19;1.42;;;1.00;;
14052;SDS011;7101;51.600;7.310;2023-04-24T01:07:47;2.28;;;1.13;;
14052;SDS011;7101;51.600;7.310;2023-04-24T01:10:14;4.03;;;0.95;;
14052;SDS011;7101;51.600;7.310;2023-04-24T01:12:42;1.85;;;1.08;;
14052;SDS011;7101;51.600;7.310;2023-04-24T01:15:10;2.47;;;1.20;;
14052;SDS011;7101;51.600;7.310;2023-04-24T01:17:36;1.80;;;1.10;;
14052;SDS011;7101;51.600;7.310;2023-04-24T01:20:04;3.85;;;1.50;;
14052;SDS011;7101;51.600;7.310;2023-04-24T01:22:33;2.22;;;1.35;;
14052;SDS011;7101;51.600;7.310;2023-04-24T01:25:07;3.70;;;1.38;;
14052;SDS011;7101;51.600;7.310;2023-04-24T01:27:36;2.22;;;1.17;;
14052;SDS011;7101;51.600;7.310;2023-04-24T01:30:03;4.43;;;1.30;;
14052;SDS011;7101;51.600;7.310;2023-04-24T01:32:31;4.93;;;1.60;;
14052;SDS011;7101;51.600;7.310;2023-04-24T01:34:59;3.15;;;1.27;;
14052;SDS011;7101;51.600;7.310;2023-04-24T01:37:26;1.33;;;1.20;;
14052;SDS011;7101;51.600;7.310;2023-04-24T01:39:55;1.95;;;1.30;;
14052;SDS011;7101;51.600;7.310;2023-04-24T01:42:22;2.13;;;1.30;;
14052;SDS011;7101;51.600;7.310;2023-04-24T01:44:49;2.08;;;1.40;;
14052;SDS011;7101;51.600;7.310;2023-04-24T01:47:17;2.72;;;1.70;;
14052;SDS011;7101;51.600;7.310;2023-04-24T01:49:44;1.80;;;1.48;;
14052;SDS011;7101;51.600;7.310;2023-04-24T01:52:14;1.85;;;1.63;;
14052;SDS011;7101;51.600;7.310;2023-04-24T01:54:43;5.50;;;1.70;;
14052;SDS011;7101;51.600;7.310;2023-04-24T01:57:11;1.45;;;1.35;;
14052;SDS011;7101;51.600;7.310;2023-04-24T01:59:39;2.22;;;1.70;;
14052;SDS011;7101;51.600;7.310;2023-04-24T02:02:06;3.13;;;1.90;;
14052;SDS011;7101;51.600;7.310;2023-04-24T02:04:35;2.45;;;1.80;;
14052;SDS011;7101;51.600;7.310;2023-04-24T02:07:01;2.83;;;1.80;;
14052;SDS011;7101;51.600;7.310;2023-04-24T02:09:30;3.60;;;1.90;;
14052;SDS011;7101;51.600;7.310;2023-04-24T02:11:57;3.72;;;2.45;;
14052;SDS011;7101;51.600;7.310;2023-04-24T02:14:25;6.03;;;2.80;;
14052;SDS011;7101;51.600;7.310;2023-04-24T02:16:58;3.22;;;2.70;;
14052;SDS011;7101;51.600;7.310;2023-04-24T02:19:25;3.35;;;2.60;;
14052;SDS011;7101;51.600;7.310;2023-04-24T02:21:53;3.40;;;2.38;;
14052;SDS011;7101;51.600;7.310;2023-04-24T02:24:20;5.07;;;3.00;;
14052;SDS011;7101;51.600;7.310;2023-04-24T02:26:48;6.10;;;2.90;;
14052;SDS011;7101;51.600;7.310;2023-04-24T02:29:15;3.38;;;2.47;;
14052;SDS011;7101;51.600;7.310;2023-04-24T02:31:45;6.22;;;2.38;;
14052;SDS011;7101;51.600;7.310;2023-04-24T02:34:12;2.47;;;2.15;;
14052;SDS011;7101;51.600;7.310;2023-04-24T02:36:39;4.13;;;2.75;;
14052;SDS011;7101;51.600;7.310;2023-04-24T02:39:06;3.20;;;2.78;;
14052;SDS011;7101;51.600;7.310;2023-04-24T02:41:34;4.70;;;2.40;;
14052;SDS011;7101;51.600;7.310;2023-04-24T02:44:04;5.68;;;3.25;;
14052;SDS011;7101;51.600;7.310;2023-04-24T02:46:30;3.78;;;3.10;;
14052;SDS011;7101;51.600;7.310;2023-04-24T02:49:00;4.38;;;3.40;;
14052;SDS011;7101;51.600;7.310;2023-04-24T02:51:27;8.25;;;3.70;;
14052;SDS011;7101;51.600;7.310;2023-04-24T02:53:55;5.57;;;3.70;;
14052;SDS011;7101;51.600;7.310;2023-04-24T02:56:22;4.68;;;3.85;;
14052;SDS011;7101;51.600;7.310;2023-04-24T02:58:49;7.05;;;4.28;;
14052;SDS011;7101;51.600;7.310;2023-04-24T03:01:17;6.00;;;4.90;;
14052;SDS011;7101;51.600;7.310;2023-04-24T03:03:44;6.45;;;4.45;;
14052;SDS011;7101;51.600;7.310;2023-04-24T03:06:12;7.22;;;4.97;;
14052;SDS011;7101;51.600;7.310;2023-04-24T03:08:39;8.77;;;5.60;;
14052;SDS011;7101;51.600;7.310;2023-04-24T03:11:06;9.40;;;5.78;;
14052;SDS011;7101;51.600;7.310;2023-04-24T03:13:33;6.90;;;5.43;;
14052;SDS011;7101;51.600;7.310;2023-04-24T03:16:02;9.05;;;6.85;;
14052;SDS011;7101;51.600;7.310;2023-04-24T03:18:29;8.80;;;6.70;;
14052;SDS011;7101;51.600;7.310;2023-04-24T03:20:57;9.85;;;6.80;;
14052;SDS011;7101;51.600;7.310;2023-04-24T03:23:26;10.40;;;6.72;;
14052;SDS011;7101;51.600;7.310;2023-04-24T03:25:54;10.00;;;7.47;;
14052;SDS011;7101;51.600;7.310;2023-04-24T03:28:21;9.57;;;7.00;;
14052;SDS011;7101;51.600;7.310;2023-04-24T03:30:48;12.50;;;7.43;;
14052;SDS011;7101;51.600;7.310;2023-04-24T03:33:15;11.25;;;7.53;;
14052;SDS011;7101;51.600;7.310;2023-04-24T03:35:41;11.82;;;7.63;;
14052;SDS011;7101;51.600;7.310;2023-04-24T03:38:08;9.80;;;7.38;;
14052;SDS011;7101;51.600;7.310;2023-04-24T03:40:37;11.60;;;7.57;;
14052;SDS011;7101;51.600;7.310;2023-04-24T03:43:05;11.98;;;7.45;;
14052;SDS011;7101;51.600;7.310;2023-04-24T03:45:32;11.25;;;7.75;;
14052;SDS011;7101;51.600;7.310;2023-04-24T03:47:59;9.40;;;7.35;;
14052;SDS011;7101;51.600;7.310;2023-04-24T03:50:27;10.15;;;7.85;;
14052;SDS011;7101;51.600;7.310;2023-04-24T03:52:54;12.50;;;7.85;;
14052;SDS011;7101;51.600;7.310;2023-04-24T03:55:21;9.75;;;7.50;;
14052;SDS011;7101;51.600;7.310;2023-04-24T03:57:49;15.07;;;8.30;;
14052;SDS011;7101;51.600;7.310;2023-04-24T04:00:16;9.95;;;7.05;;
14052;SDS011;7101;51.600;7.310;2023-04-24T04:02:45;10.65;;;8.02;;
14052;SDS011;7101;51.600;7.310;2023-04-24T04:05:14;13.20;;;8.00;;
14052;SDS011;7101;51.600;7.310;2023-04-24T04:07:41;11.18;;;7.82;;
14052;SDS011;7101;51.600;7.310;2023-04-24T04:10:08;13.15;;;8.27;;
14052;SDS011;7101;51.600;7.310;2023-04-24T04:12:35;11.55;;;7.60;;
14052;SDS011;7101;51.600;7.310;2023-04-24T04:15:04;10.27;;;8.02;;
14052;SDS011;7101;51.600;7.310;2023-04-24T04:17:31;14.65;;;8.38;;
14052;SDS011;7101;51.600;7.310;2023-04-24T04:19:59;12.38;;;7.53;;
14052;SDS011;7101;51.600;7.310;2023-04-24T04:22:27;13.77;;;7.72;;
14052;SDS011;7101;51.600;7.310;2023-04-24T04:24:54;12.27;;;8.05;;
14052;SDS011;7101;51.600;7.310;2023-04-24T04:27:22;12.27;;;8.00;;
14052;SDS011;7101;51.600;7.310;2023-04-24T04:29:49;10.40;;;7.65;;
14052;SDS011;7101;51.600;7.310;2023-04-24T04:32:17;13.85;;;7.90;;
14052;SDS011;7101;51.600;7.310;2023-04-24T04:34:46;13.93;;;8.23;;
14052;SDS011;7101;51.600;7.310;2023-04-24T04:37:14;9.48;;;7.55;;
14052;SDS011;7101;51.600;7.310;2023-04-24T04:39:42;9.75;;;7.18;;
14052;SDS011;7101;51.600;7.310;2023-04-24T04:42:09;13.95;;;8.57;;
14052;SDS011;7101;51.600;7.310;2023-04-24T04:44:36;15.63;;;8.15;;
14052;SDS011;7101;51.600;7.310;2023-04-24T04:47:03;10.52;;;7.80;;
14052;SDS011;7101;51.600;7.310;2023-04-24T04:49:38;12.45;;;7.93;;
14052;SDS011;7101;51.600;7.310;2023-04-24T04:52:07;10.05;;;7.35;;
14052;SDS011;7101;51.600;7.310;2023-04-24T04:54:36;12.77;;;8.43;;
14052;SDS011;7101;51.600;7.310;2023-04-24T04:57:03;14.98;;;8.77;;
14052;SDS011;7101;51.600;7.310;2023-04-24T04:59:30;10.23;;;7.65;;
14052;SDS011;7101;51.600;7.310;2023-04-24T05:01:57;11.43;;;7.50;;
14052;SDS011;7101;51.600;7.310;2023-04-24T05:04:24;10.48;;;7.93;;
14052;SDS011;7101;51.600;7.310;2023-04-24T05:06:53;13.05;;;7.88;;
14052;SDS011;7101;51.600;7.310;2023-04-24T05:09:21;10.38;;;7.45;;
14052;SDS011;7101;51.600;7.310;2023-04-24T05:11:47;12.15;;;7.55;;
14052;SDS011;7101;51.600;7.310;2023-04-24T05:14:15;9.15;;;7.45;;
14052;SDS011;7101;51.600;7.310;2023-04-24T05:16:43;12.77;;;7.63;;
14052;SDS011;7101;51.600;7.310;2023-04-24T05:19:10;12.18;;;7.70;;
14052;SDS011;7101;51.600;7.310;2023-04-24T05:21:38;14.95;;;7.95;;
14052;SDS011;7101;51.600;7.310;2023-04-24T05:24:07;9.85;;;7.35;;
14052;SDS011;7101;51.600;7.310;2023-04-24T05:26:34;10.10;;;7.30;;
14052;SDS011;7101;51.600;7.310;2023-04-24T05:29:01;12.13;;;7.15;;
14052;SDS011;7101;51.600;7.310;2023-04-24T05:31:28;11.05;;;7.07;;
14052;SDS011;7101;51.600;7.310;2023-04-24T05:33:55;10.68;;;7.45;;
14052;SDS011;7101;51.600;7.310;2023-04-24T05:36:22;10.55;;;7.55;;
14052;SDS011;7101;51.600;7.310;2023-04-24T05:38:55;9.40;;;6.55;;
14052;SDS011;7101;51.600;7.310;2023-04-24T05:41:24;8.68;;;6.47;;
14052;SDS011;7101;51.600;7.310;2023-04-24T05:43:51;8.23;;;6.80;;
14052;SDS011;7101;51.600;7.310;2023-04-24T05:46:20;10.35;;;6.10;;
14052;SDS011;7101;51.600;7.310;2023-04-24T05:48:47;9.40;;;6.18;;
14052;SDS011;7101;51.600;7.310;2023-04-24T05:51:14;14.18;;;6.75;;
14052;SDS011;7101;51.600;7.310;2023-04-24T05:53:41;8.55;;;6.93;;
14052;SDS011;7101;51.600;7.310;2023-04-24T05:56:08;11.60;;;6.90;;
14052;SDS011;7101;51.600;7.310;2023-04-24T05:58:43;8.98;;;6.35;;
14052;SDS011;7101;51.600;7.310;2023-04-24T06:01:11;9.57;;;6.25;;
14052;SDS011;7101;51.600;7.310;2023-04-24T06:03:39;9.45;;;6.43;;
14052;SDS011;7101;51.600;7.310;2023-04-24T06:06:08;8.57;;;6.35;;
14052;SDS011;7101;51.600;7.310;2023-04-24T06:08:36;9.48;;;6.10;;
14052;SDS011;7101;51.600;7.310;2023-04-24T06:11:04;6.85;;;5.75;;
14052;SDS011;7101;51.600;7.310;2023-04-24T06:13:31;8.00;;;5.80;;
14052;SDS011;7101;51.600;7.310;2023-04-24T06:15:59;11.02;;;6.85;;
14052;SDS011;7101;51.600;7.310;2023-04-24T06:18:26;10.25;;;6.93;;
14052;SDS011;7101;51.600;7.310;2023-04-24T06:21:00;9.55;;;7.10;;
14052;SDS011;7101;51.600;7.310;2023-04-24T06:23:28;9.77;;;6.53;;
14052;SDS011;7101;51.600;7.310;2023-04-24T06:25:57;7.20;;;6.50;;
14052;SDS011;7101;51.600;7.310;2023-04-24T06:28:26;11.18;;;7.22;;
14052;SDS011;7101;51.600;7.310;2023-04-24T06:30:53;12.38;;;7.20;;
14052;SDS011;7101;51.600;7.310;2023-04-24T06:33:22;10.35;;;6.60;;
14052;SDS011;7101;51.600;7.310;2023-04-24T06:35:49;7.68;;;6.60;;
14052;SDS011;7101;51.600;7.310;2023-04-24T06:38:16;8.75;;;6.72;;
14052;SDS011;7101;51.600;7.310;2023-04-24T06:40:44;8.20;;;5.97;;
14052;SDS011;7101;51.600;7.310;2023-04-24T06:43:11;7.80;;;5.60;;
14052;SDS011;7101;51.600;7.310;2023-04-24T06:45:38;10.13;;;5.70;;
14052;SDS011;7101;51.600;7.310;2023-04-24T06:50:36;7.00;;;5.20;;
14052;SDS011;7101;51.600;7.310;2023-04-24T06:53:04;6.68;;;5.18;;
14052;SDS011;7101;51.600;7.310;2023-04-24T06:55:31;7.07;;;5.05;;
14052;SDS011;7101;51.600;7.310;2023-04-24T06:57:58;7.45;;;4.65;;
14052;SDS011;7101;51.600;7.310;2023-04-24T07:00:25;5.40;;;4.90;;
14052;SDS011;7101;51.600;7.310;2023-04-24T07:02:52;6.15;;;4.60;;
14052;SDS011;7101;51.600;7.310;2023-04-24T07:05:19;5.38;;;4.85;;
14052;SDS011;7101;51.600;7.310;2023-04-24T07:07:47;5.78;;;4.50;;
14052;SDS011;7101;51.600;7.310;2023-04-24T07:10:15;6.95;;;4.70;;
14052;SDS011;7101;51.600;7.310;2023-04-24T07:12:44;5.93;;;4.38;;
14052;SDS011;7101;51.600;7.310;2023-04-24T07:15:11;6.07;;;4.68;;
14052;SDS011;7101;51.600;7.310;2023-04-24T07:17:38;5.00;;;4.10;;
14052;SDS011;7101;51.600;7.310;2023-04-24T07:20:10;7.00;;;4.55;;
14052;SDS011;7101;51.600;7.310;2023-04-24T07:22:40;4.80;;;4.20;;
14052;SDS011;7101;51.600;7.310;2023-04-24T07:25:15;4.93;;;3.60;;
14052;SDS011;7101;51.600;7.310;2023-04-24T07:27:42;5.68;;;3.65;;
14052;SDS011;7101;51.600;7.310;2023-04-24T07:30:14;4.85;;;3.70;;
14052;SDS011;7101;51.600;7.310;2023-04-24T07:32:41;8.13;;;3.83;;
14052;SDS011;7101;51.600;7.310;2023-04-24T07:35:09;5.75;;;3.40;;
14052;SDS011;7101;51.600;7.310;2023-04-24T07:37:35;5.68;;;3.55;;
14052;SDS011;7101;51.600;7.310;2023-04-24T07:40:03;4.22;;;3.28;;
14052;SDS011;7101;51.600;7.310;2023-04-24T07:42:31;4.65;;;3.33;;
14052;SDS011;7101;51.600;7.310;2023-04-24T07:45:05;5.53;;;2.78;;
14052;SDS011;7101;51.600;7.310;2023-04-24T07:47:33;3.45;;;2.85;;
14052;SDS011;7101;51.600;7.310;2023-04-24T07:50:03;2.88;;;2.53;;
14052;SDS011;7101;51.600;7.310;2023-04-24T07:52:33;3.30;;;2.63;;
14052;SDS011;7101;51.600;7.310;2023-04-24T07:55:01;3.13;;;2.70;;
14052;SDS011;7101;51.600;7.310;2023-04-24T07:57:33;3.85;;;2.35;;
14052;SDS011;7101;51.600;7.310;2023-04-24T08:00:00;4.78;;;2.20;;
14052;SDS011;7101;51.600;7.310;2023-04-24T08:02:28;2.42;;;1.90;;
14052;SDS011;7101;51.600;7.310;2023-04-24T08:04:56;2.67;;;2.15;;
14052;SDS011;7101;51.600;7.310;2023-04-24T08:07:23;3.55;;;2.17;;
14052;SDS011;7101;51.600;7.310;2023-04-24T08:09:58;3.25;;;2.30;;
14052;SDS011;7101;51.600;7.310;2023-04-24T08:12:25;5.60;;;2.28;;
14052;SDS011;7101;51.600;7.310;2023-04-24T08:14:54;2.20;;;2.00;;
14052;SDS011;7101;51.600;7.310;2023-04-24T08:17:24;2.65;;;1.90;;
14052;SDS011;7101;51.600;7.310;2023-04-24T08:19:51;2.05;;;1.40;;
14052;SDS011;7101;51.600;7.310;2023-04-24T08:22:25;3.13;;;1.63;;
14052;SDS011;7101;51.600;7.310;2023-04-24T08:24:52;1.77;;;1.38;;
14052;SDS011;7101;51.600;7.310;2023-04-24T08:27:19;3.35;;;1.50;;
14052;SDS011;7101;51.600;7.310;2023-04-24T08:29:46;1.27;;;1.17;;
14052;SDS011;7101;51.600;7.310;2023-04-24T08:32:22;2.67;;;1.25;;
14052;SDS011;7101;51.600;7.310;2023-04-24T08:34:49;1.05;;;0.75;;
14052;SDS011;7101;51.600;7.310;2023-04-24T08:37:19;1.00;;;0.90;;
14052;SDS011;7101;51.600;7.310;2023-04-24T08:39:46;1.25;;;0.90;;
14052;SDS011;7101;51.600;7.310;2023-04-24T08:42:13;0.85;;;0.80;;
14052;SDS011;7101;51.600;7.310;2023-04-24T08:44:41;1.92;;;1.10;;
14052;SDS011;7101;51.600;7.310;2023-04-24T08:47:09;1.95;;;1.20;;
14052;SDS011;7101;51.600;7.310;2023-04-24T08:49:38;1.95;;;1.25;;
14052;SDS011;7101;51.600;7.310;2023-04-24T08:52:06;1.80;;;1.10;;
14052;SDS011;7101;51.600;7.310;2023-04-24T08:54:33;1.05;;;0.95;;
14052;SDS011;7101;51.600;7.310;2023-04-24T08:57:01;1.25;;;0.90;;
14052;SDS011;7101;51.600;7.310;2023-04-24T08:59:31;1.20;;;1.00;;
14052;SDS011;7101;51.600;7.310;2023-04-24T09:02:01;1.10;;;0.88;;
14052;SDS011;7101;51.600;7.310;2023-04-24T09:04:30;0.98;;;0.90;;
14052;SDS011;7101;51.600;7.310;2023-04-24T09:07:01;2.50;;;0.80;;
14052;SDS011;7101;51.600;7.310;2023-04-24T09:09:30;1.80;;;1.10;;
14052;SDS011;7101;51.600;7.310;2023-04-24T09:11:59;4.07;;;1.50;;
14052;SDS011;7101;51.600;7.310;2023-04-24T09:14:29;2.67;;;1.88;;
14052;SDS011;7101;51.600;7.310;2023-04-24T09:16:57;4.22;;;2.60;;
14052;SDS011;7101;51.600;7.310;2023-04-24T09:19:24;2.42;;;1.80;;
14052;SDS011;7101;51.600;7.310;2023-04-24T09:21:50;3.00;;;2.10;;
14052;SDS011;7101;51.600;7.310;2023-04-24T09:24:27;2.50;;;2.00;;
14052;SDS011;7101;51.600;7.310;2023-04-24T09:26:55;3.30;;;2.15;;
14052;SDS011;7101;51.600;7.310;2023-04-24T09:29:24;2.63;;;1.90;;
14052;SDS011;7101;51.600;7.310;2023-04-24T09:31:51;2.10;;;1.60;;
14052;SDS011;7101;51.600;7.310;2023-04-24T09:34:21;2.15;;;1.95;;
14052;SDS011;7101;51.600;7.310;2023-04-24T09:36:48;5.32;;;1.90;;
14052;SDS011;7101;51.600;7.310;2023-04-24T09:39:16;5.32;;;2.00;;
14052;SDS011;7101;51.600;7.310;2023-04-24T09:41:47;2.42;;;1.80;;
14052;SDS011;7101;51.600;7.310;2023-04-24T09:44:15;3.20;;;1.95;;
14052;SDS011;7101;51.600;7.310;2023-04-24T09:46:44;2.55;;;2.22;;
14052;SDS011;7101;51.600;7.310;2023-04-24T09:49:15;2.85;;;2.17;;
14052;SDS011;7101;51.600;7.310;2023-04-24T09:51:47;4.38;;;2.50;;
14052;SDS011;7101;51.600;7.310;2023-04-24T09:54:15;3.70;;;2.40;;
14052;SDS011;7101;51.600;7.310;2023-04-24T09:56:43;1.67;;;1.58;;
14052;SDS011;7101;51.600;7.310;2023-04-24T09:59:13;3.03;;;1.75;;
14052;SDS011;7101;51.600;7.310;2023-04-24T10:01:40;2.50;;;1.40;;
14052;SDS011;7101;51.600;7.310;2023-04-24T10:04:16;2.15;;;1.58;;
14052;SDS011;7101;51.600;7.310;2023-04-24T10:06:44;4.78;;;1.60;;
14052;SDS011;7101;51.600;7.310;2023-04-24T10:09:12;2.15;;;1.60;;
14052;SDS011;7101;51.600;7.310;2023-04-24T10:11:41;3.97;;;2.22;;
14052;SDS011;7101;51.600;7.310;2023-04-24T10:14:10;2.28;;;2.00;;
14052;SDS011;7101;51.600;7.310;2023-04-24T10:16:41;2.40;;;2.10;;
14052;SDS011;7101;51.600;7.310;2023-04-24T10:19:09;2.83;;;2.38;;
14052;SDS011;7101;51.600;7.310;2023-04-24T10:21:35;3.13;;;2.40;;
14052;SDS011;7101;51.600;7.310;2023-04-24T10:24:07;2.83;;;2.42;;
14052;SDS011;7101;51.600;7.310;2023-04-24T10:26:35;3.05;;;2.72;;
14052;SDS011;7101;51.600;7.310;2023-04-24T10:29:02;3.38;;;2.67;;
14052;SDS011;7101;51.600;7.310;2023-04-24T10:31:36;4.03;;;2.60;;
14052;SDS011;7101;51.600;7.310;2023-04-24T10:34:03;4.03;;;2.80;;
14052;SDS011;7101;51.600;7.310;2023-04-24T10:36:32;4.60;;;2.60;;
14052;SDS011;7101;51.600;7.310;2023-04-24T10:39:02;4.25;;;2.95;;
14052;SDS011;7101;51.600;7.310;2023-04-24T10:41:32;3.95;;;2.78;;
14052;SDS011;7101;51.600;7.310;2023-04-24T10:44:06;4.75;;;3.05;;
14052;SDS011;7101;51.600;7.310;2023-04-24T10:46:36;3.85;;;3.00;;
14052;SDS011;7101;51.600;7.310;2023-04-24T10:49:03;4.78;;;3.60;;
14052;SDS011;7101;51.600;7.310;2023-04-24T10:51:44;5.18;;;3.80;;
14052;SDS011;7101;51.600;7.310;2023-04-24T10:54:25;4.97;;;3.75;;
14052;SDS011;7101;51.600;7.310;2023-04-24T10:57:25;6.45;;;3.78;;
14052;SDS011;7101;51.600;7.310;2023-04-24T11:00:14;6.78;;;4.72;;
14052;SDS011;7101;51.600;7.310;2023-04-24T11:02:45;5.70;;;4.15;;
14052;SDS011;7101;51.600;7.310;2023-04-24T11:05:18;8.18;;;4.18;;
14052;SDS011;7101;51.600;7.310;2023-04-24T11:10:43;8.63;;;4.38;;
14052;SDS011;7101;51.600;7.310;2023-04-24T11:13:13;7.55;;;4.32;;
14052;SDS011;7101;51.600;7.310;2023-04-24T11:15:41;10.93;;;4.30;;
14052;SDS011;7101;51.600;7.310;2023-04-24T11:18:13;11.75;;;4.43;;
14052;SDS011;7101;51.600;7.310;2023-04-24T11:20:41;9.38;;;4.53;;
14052;SDS011;7101;51.600;7.310;2023-04-24T11:23:09;10.55;;;4.88;;
14052;SDS011;7101;51.600;7.310;2023-04-24T11:25:39;10.98;;;4.53;;
14052;SDS011;7101;51.600;7.310;2023-04-24T11:28:07;12.60;;;4.80;;
14052;SDS011;7101;51.600;7.310;2023-04-24T11:30:40;8.43;;;4.25;;
14052;SDS011;7101;51.600;7.310;2023-04-24T11:33:08;9.35;;;4.50;;
14052;SDS011;7101;51.600;7.310;2023-04-24T11:35:39;13.75;;;4.60;;
14052;SDS011;7101;51.600;7.310;2023-04-24T11:38:06;10.07;;;4.18;;
14052;SDS011;7101;51.600;7.310;2023-04-24T11:40:33;11.50;;;4.72;;
14052;SDS011;7101;51.600;7.310;2023-04-24T11:43:00;12.10;;;4.20;;
14052;SDS011;7101;51.600;7.310;2023-04-24T11:45:28;10.93;;;4.10;;
14052;SDS011;7101;51.600;7.310;2023-04-24T11:48:00;8.43;;;4.18;;
14052;SDS011;7101;51.600;7.310;2023-04-24T11:50:29;10.55;;;4.15;;
14052;SDS011;7101;51.600;7.310;2023-04-24T11:52:59;12.52;;;4.13;;
14052;SDS011;7101;51.600;7.310;2023-04-24T11:55:27;10.70;;;4.30;;
14052;SDS011;7101;51.600;7.310;2023-04-24T11:57:55;9.38;;;4.43;;
14052;SDS011;7101;51.600;7.310;2023-04-24T12:00:25;11.50;;;4.63;;
14052;SDS011;7101;51.600;7.310;2023-04-24T12:03:03;11.32;;;4.10;;
14052;SDS011;7101;51.600;7.310;2023-04-24T12:05:31;11.45;;;3.90;;
14052;SDS011;7101;51.600;7.310;2023-04-24T12:07:59;10.55;;;3.97;;
14052;SDS011;7101;51.600;7.310;2023-04-24T12:10:27;8.25;;;4.07;;
14052;SDS011;7101;51.600;7.310;2023-04-24T12:12:56;11.98;;;4.07;;
14052;SDS011;7101;51.600;7.310;2023-04-24T12:15:26;8.45;;;3.92;;
14052;SDS011;7101;51.600;7.310;2023-04-24T12:17:55;11.88;;;4.15;;
14052;SDS011;7101;51.600;7.310;2023-04-24T12:20:27;9.63;;;4.20;;
14052;SDS011;7101;51.600;7.310;2023-04-24T12:22:55;10.77;;;4.10;;
14052;SDS011;7101;51.600;7.310;2023-04-24T12:25:25;7.03;;;3.25;;
14052;SDS011;7101;51.600;7.310;2023-04-24T12:27:54;8.25;;;2.85;;
14052;SDS011;7101;51.600;7.310;2023-04-24T12:30:26;7.80;;;2.95;;
14052;SDS011;7101;51.600;7.310;2023-04-24T12:32:57;4.43;;;2.50;;
14052;SDS011;7101;51.600;7.310;2023-04-24T12:35:25;6.43;;;2.58;;
14052;SDS011;7101;51.600;7.310;2023-04-24T12:37:54;6.45;;;2.25;;
14052;SDS011;7101;51.600;7.310;2023-04-24T12:40:22;6.47;;;2.92;;
14052;SDS011;7101;51.600;7.310;2023-04-24T12:42:54;6.63;;;3.17;;
14052;SDS011;7101;51.600;7.310;2023-04-24T12:45:20;5.75;;;2.72;;
14052;SDS011;7101;51.600;7.310;2023-04-24T12:47:50;8.65;;;2.70;;
14052;SDS011;7101;51.600;7.310;2023-04-24T12:50:19;6.40;;;2.47;;
14052;SDS011;7101;51.600;7.310;2023-04-24T12:52:46;6.65;;;2.13;;
14052;SDS011;7101;51.600;7.310;2023-04-24T12:55:14;6.95;;;2.30;;
14052;SDS011;7101;51.600;7.310;2023-04-24T12:57:43;5.82;;;2.50;;
14052;SDS011;7101;51.600;7.310;2023-04-24T13:00:10;6.93;;;2.40;;
14052;SDS011;7101;51.600;7.310;2023-04-24T13:02:37;6.72;;;2.67;;
14052;SDS011;7101;51.600;7.310;2023-04-24T13:05:05;5.60;;;2.60;;
14052;SDS011;7101;51.600;7.310;2023-04-24T13:07:32;5.00;;;2.47;;
14052;SDS011;7101;51.600;7.310;2023-04-24T13:10:02;6.53;;;2.50;;
14052;SDS011;7101;51.600;7.310;2023-04-24T13:12:29;6.53;;;2.72;;
14052;SDS011;7101;51.600;7.310;2023-04-24T13:14:57;6.10;;;2.55;;
14052;SDS011;7101;51.600;7.310;2023-04-24T13:17:24;5.65;;;2.40;;
14052;SDS011;7101;51.600;7.310;2023-04-24T13:19:53;8.02;;;2.95;;
14052;SDS011;7101;51.600;7.310;2023-04-24T13:22:21;5.35;;;3.65;;
14052;SDS011;7101;51.600;7.310;2023-04-24T13:24:47;5.97;;;3.25;;
14052;SDS011;7101;51.600;7.310;2023-04-24T13:27:14;2.75;;;1.70;;
14052;SDS011;7101;51.600;7.310;2023-04-24T13:29:41;3.00;;;2.10;;
14052;SDS011;7101;51.600;7.310;2023-04-24T13:32:10;6.32;;;2.20;;
14052;SDS011;7101;51.600;7.310;2023-04-24T13:34:39;3.65;;;2.00;;
14052;SDS011;7101;51.600;7.310;2023-04-24T13:37:08;4.07;;;1.67;;
14052;SDS011;7101;51.600;7.310;2023-04-24T13:39:35;5.30;;;1.80;;
14052;SDS011;7101;51.600;7.310;2023-04-24T13:42:02;6.40;;;1.98;;
14052;SDS011;7101;51.600;7.310;2023-04-24T13:44:29;4.07;;;1.85;;
14052;SDS011;7101;51.600;7.310;2023-04-24T13:46:57;3.67;;;1.52;;
14052;SDS011;7101;51.600;7.310;2023-04-24T13:49:25;5.05;;;1.73;;
14052;SDS011;7101;51.600;7.310;2023-04-24T13:51:53;4.22;;;1.77;;
14052;SDS011;7101;51.600;7.310;2023-04-24T13:54:21;5.53;;;2.00;;
14052;SDS011;7101;51.600;7.310;2023-04-24T13:56:50;6.07;;;2.10;;
14052;SDS011;7101;51.600;7.310;2023-04-24T13:59:17;3.67;;;1.98;;
14052;SDS011;7101;51.600;7.310;2023-04-24T14:01:45;4.97;;;1.83;;
14052;SDS011;7101;51.600;7.310;2023-04-24T14:04:12;3.60;;;1.75;;
14052;SDS011;7101;51.600;7.310;2023-04-24T14:06:42;4.18;;;1.70;;
14052;SDS011;7101;51.600;7.310;2023-04-24T14:09:09;5.03;;;1.90;;
14052;SDS011;7101;51.600;7.310;2023-04-24T14:11:36;7.05;;;2.00;;
14052;SDS011;7101;51.600;7.310;2023-04-24T14:14:03;10.77;;;1.90;;
14052;SDS011;7101;51.600;7.310;2023-04-24T14:16:30;4.85;;;1.73;;
14052;SDS011;7101;51.600;7.310;2023-04-24T14:19:00;4.95;;;1.70;;
14052;SDS011;7101;51.600;7.310;2023-04-24T14:21:27;4.72;;;1.80;;
14052;SDS011;7101;51.600;7.310;2023-04-24T14:23:56;3.75;;;1.92;;
14052;SDS011;7101;51.600;7.310;2023-04-24T14:26:23;5.40;;;2.10;;
14052;SDS011;7101;51.600;7.310;2023-04-24T14:28:50;5.75;;;2.20;;
14052;SDS011;7101;51.600;7.310;2023-04-24T14:31:18;2.92;;;1.98;;
14052;SDS011;7101;51.600;7.310;2023-04-24T14:33:44;3.72;;;2.10;;
14052;SDS011;7101;51.600;7.310;2023-04-24T14:36:12;4.80;;;1.95;;
14052;SDS011;7101;51.600;7.310;2023-04-24T14:38:39;4.25;;;2.47;;
14052;SDS011;7101;51.600;7.310;2023-04-24T14:41:07;5.82;;;2.55;;
14052;SDS011;7101;51.600;7.310;2023-04-24T14:43:36;3.20;;;2.08;;
14052;SDS011;7101;51.600;7.310;2023-04-24T14:46:03;5.90;;;3.35;;
14052;SDS011;7101;51.600;7.310;2023-04-24T14:48:30;3.17;;;2.45;;
14052;SDS011;7101;51.600;7.310;2023-04-24T14:50:57;8.93;;;4.78;;
14052;SDS011;7101;51.600;7.310;2023-04-24T14:53:24;7.90;;;4.53;;
14052;SDS011;7101;51.600;7.310;2023-04-24T14:55:51;14.48;;;8.05;;
14052;SDS011;7101;51.600;7.310;2023-04-24T14:58:20;9.48;;;4.45;;
14052;SDS011;7101;51.600;7.310;2023-04-24T15:00:48;10.43;;;6.07;;
14052;SDS011;7101;51.600;7.310;2023-04-24T15:03:17;5.03;;;2.97;;
14052;SDS011;7101;51.600;7.310;2023-04-24T15:05:45;15.82;;;9.68;;
14052;SDS011;7101;51.600;7.310;2023-04-24T15:08:12;10.63;;;6.82;;
14052;SDS011;7101;51.600;7.310;2023-04-24T15:10:39;6.75;;;4.20;;